sensor_id;sensor_type;location;lat;lon;timestamp;P1;durP1;ratioP1;P2;durP2;ratioP2
46745;SDS011;32493;50.514;9.678;2023-06-26T00:00:27;9.30;;;7.30;;
46745;SDS011;32493;50.514;9.678;2023-06-26T00:02:43;9.17;;;6.83;;
46745;SDS011;32493;50.514;9.678;2023-06-26T00:04:49;8.63;;;6.57;;
46745;SDS011;32493;50.514;9.678;2023-06-26T00:06:55;8.70;;;6.63;;
46745;SDS011;32493;50.514;9.678;2023-06-26T00:09:03;8.65;;;7.03;;
46745;SDS011;32493;50.514;9.678;2023-06-26T00:11:12;11.90;;;7.03;;
46745;SDS011;32493;50.514;9.678;2023-06-26T00:13:18;9.85;;;6.70;;
46745;SDS011;32493;50.514;9.678;2023-06-26T00:15:24;8.25;;;6.63;;
46745;SDS011;32493;50.514;9.678;2023-06-26T00:17:34;8.00;;;6.50;;
46745;SDS011;32493;50.514;9.678;2023-06-26T00:19:42;8.02;;;6.18;;
46745;SDS011;32493;50.514;9.678;2023-06-26T00:21:50;9.45;;;6.78;;
46745;SDS011;32493;50.514;9.678;2023-06-26T00:23:56;9.63;;;6.97;;
46745;SDS011;32493;50.514;9.678;2023-06-26T00:26:15;7.88;;;6.75;;
46745;SDS011;32493;50.514;9.678;2023-06-26T00:28:21;10.23;;;7.60;;
46745;SDS011;32493;50.514;9.678;2023-06-26T00:30:26;11.10;;;7.40;;
46745;SDS011;32493;50.514;9.678;2023-06-26T00:32:32;8.95;;;7.47;;
46745;SDS011;32493;50.514;9.678;2023-06-26T00:34:43;10.25;;;7.30;;
46745;SDS011;32493;50.514;9.678;2023-06-26T00:36:54;9.20;;;7.55;;
46745;SDS011;32493;50.514;9.678;2023-06-26T00:39:02;8.88;;;7.35;;
46745;SDS011;32493;50.514;9.678;2023-06-26T00:41:11;9.27;;;7.07;;
46745;SDS011;32493;50.514;9.678;2023-06-26T00:43:24;9.35;;;7.70;;
46745;SDS011;32493;50.514;9.678;2023-06-26T00:45:32;11.07;;;7.97;;
46745;SDS011;32493;50.514;9.678;2023-06-26T00:47:46;9.70;;;7.93;;
46745;SDS011;32493;50.514;9.678;2023-06-26T00:52:09;12.38;;;7.95;;
46745;SDS011;32493;50.514;9.678;2023-06-26T00:54:14;9.30;;;7.50;;
46745;SDS011;32493;50.514;9.678;2023-06-26T00:56:25;8.18;;;6.68;;
46745;SDS011;32493;50.514;9.678;2023-06-26T00:58:58;9.30;;;7.53;;
46745;SDS011;32493;50.514;9.678;2023-06-26T01:01:04;10.95;;;7.50;;
46745;SDS011;32493;50.514;9.678;2023-06-26T01:03:15;9.40;;;7.75;;
46745;SDS011;32493;50.514;9.678;2023-06-26T01:05:22;9.10;;;7.22;;
46745;SDS011;32493;50.514;9.678;2023-06-26T01:07:31;10.02;;;7.55;;
46745;SDS011;32493;50.514;9.678;2023-06-26T01:09:39;9.95;;;7.28;;
46745;SDS011;32493;50.514;9.678;2023-06-26T01:11:51;10.40;;;7.70;;
46745;SDS011;32493;50.514;9.678;2023-06-26T01:14:01;9.45;;;8.02;;
46745;SDS011;32493;50.514;9.678;2023-06-26T01:16:09;8.80;;;7.38;;
46745;SDS011;32493;50.514;9.678;2023-06-26T01:18:21;10.32;;;8.27;;
46745;SDS011;32493;50.514;9.678;2023-06-26T01:20:27;10.60;;;7.80;;
46745;SDS011;32493;50.514;9.678;2023-06-26T01:22:36;10.43;;;7.65;;
46745;SDS011;32493;50.514;9.678;2023-06-26T01:24:53;10.70;;;8.25;;
46745;SDS011;32493;50.514;9.678;2023-06-26T01:29:19;11.93;;;7.63;;
46745;SDS011;32493;50.514;9.678;2023-06-26T01:31:27;10.15;;;8.05;;
46745;SDS011;32493;50.514;9.678;2023-06-26T01:33:36;10.30;;;8.15;;
46745;SDS011;32493;50.514;9.678;2023-06-26T01:35:43;13.85;;;8.00;;
46745;SDS011;32493;50.514;9.678;2023-06-26T01:37:50;15.27;;;7.90;;
46745;SDS011;32493;50.514;9.678;2023-06-26T01:39:57;9.50;;;7.88;;
46745;SDS011;32493;50.514;9.678;2023-06-26T01:42:03;10.52;;;7.82;;
46745;SDS011;32493;50.514;9.678;2023-06-26T01:44:17;9.00;;;7.30;;
46745;SDS011;32493;50.514;9.678;2023-06-26T01:46:33;10.00;;;7.97;;
46745;SDS011;32493;50.514;9.678;2023-06-26T01:48:46;10.68;;;7.95;;
46745;SDS011;32493;50.514;9.678;2023-06-26T01:51:01;9.87;;;7.80;;
46745;SDS011;32493;50.514;9.678;2023-06-26T01:53:10;10.10;;;7.90;;
46745;SDS011;32493;50.514;9.678;2023-06-26T01:55:27;10.38;;;7.78;;
46745;SDS011;32493;50.514;9.678;2023-06-26T01:57:42;9.45;;;7.82;;
46745;SDS011;32493;50.514;9.678;2023-06-26T01:59:56;8.85;;;7.55;;
46745;SDS011;32493;50.514;9.678;2023-06-26T02:02:24;11.45;;;8.20;;
46745;SDS011;32493;50.514;9.678;2023-06-26T02:04:32;11.20;;;8.60;;
46745;SDS011;32493;50.514;9.678;2023-06-26T02:06:40;10.95;;;8.20;;
46745;SDS011;32493;50.514;9.678;2023-06-26T02:08:45;13.55;;;8.77;;
46745;SDS011;32493;50.514;9.678;2023-06-26T02:10:51;11.55;;;8.00;;
46745;SDS011;32493;50.514;9.678;2023-06-26T02:12:56;10.50;;;8.27;;
46745;SDS011;32493;50.514;9.678;2023-06-26T02:15:10;10.55;;;8.27;;
46745;SDS011;32493;50.514;9.678;2023-06-26T02:17:17;15.82;;;8.70;;
46745;SDS011;32493;50.514;9.678;2023-06-26T02:19:29;11.82;;;8.30;;
46745;SDS011;32493;50.514;9.678;2023-06-26T02:21:34;13.65;;;8.88;;
46745;SDS011;32493;50.514;9.678;2023-06-26T02:23:41;11.27;;;8.55;;
46745;SDS011;32493;50.514;9.678;2023-06-26T02:25:50;15.88;;;9.30;;
46745;SDS011;32493;50.514;9.678;2023-06-26T02:27:55;11.95;;;8.90;;
46745;SDS011;32493;50.514;9.678;2023-06-26T02:30:01;11.98;;;8.77;;
46745;SDS011;32493;50.514;9.678;2023-06-26T02:32:17;13.77;;;8.30;;
46745;SDS011;32493;50.514;9.678;2023-06-26T02:34:25;14.18;;;9.18;;
46745;SDS011;32493;50.514;9.678;2023-06-26T02:36:34;11.82;;;8.75;;
46745;SDS011;32493;50.514;9.678;2023-06-26T02:38:44;14.57;;;8.60;;
46745;SDS011;32493;50.514;9.678;2023-06-26T02:40:50;12.80;;;8.80;;
46745;SDS011;32493;50.514;9.678;2023-06-26T02:42:56;12.63;;;8.25;;
46745;SDS011;32493;50.514;9.678;2023-06-26T02:45:01;14.75;;;9.65;;
46745;SDS011;32493;50.514;9.678;2023-06-26T02:47:09;11.30;;;8.60;;
46745;SDS011;32493;50.514;9.678;2023-06-26T02:49:20;12.98;;;8.77;;
46745;SDS011;32493;50.514;9.678;2023-06-26T02:51:26;14.00;;;9.18;;
46745;SDS011;32493;50.514;9.678;2023-06-26T02:53:43;9.67;;;7.80;;
46745;SDS011;32493;50.514;9.678;2023-06-26T02:55:48;11.93;;;8.98;;
46745;SDS011;32493;50.514;9.678;2023-06-26T02:57:55;10.35;;;8.27;;
46745;SDS011;32493;50.514;9.678;2023-06-26T03:00:01;12.15;;;9.07;;
46745;SDS011;32493;50.514;9.678;2023-06-26T03:02:18;14.13;;;8.98;;
46745;SDS011;32493;50.514;9.678;2023-06-26T03:04:26;15.70;;;8.85;;
46745;SDS011;32493;50.514;9.678;2023-06-26T03:06:32;11.98;;;9.05;;
46745;SDS011;32493;50.514;9.678;2023-06-26T03:08:37;13.25;;;9.10;;
46745;SDS011;32493;50.514;9.678;2023-06-26T03:10:48;11.38;;;9.00;;
46745;SDS011;32493;50.514;9.678;2023-06-26T03:12:56;15.27;;;9.57;;
46745;SDS011;32493;50.514;9.678;2023-06-26T03:15:02;11.50;;;8.87;;
46745;SDS011;32493;50.514;9.678;2023-06-26T03:17:09;16.10;;;10.30;;
46745;SDS011;32493;50.514;9.678;2023-06-26T03:19:20;14.45;;;9.50;;
46745;SDS011;32493;50.514;9.678;2023-06-26T03:21:47;18.55;;;9.27;;
46745;SDS011;32493;50.514;9.678;2023-06-26T03:23:57;11.70;;;9.07;;
46745;SDS011;32493;50.514;9.678;2023-06-26T03:26:03;13.38;;;8.60;;
46745;SDS011;32493;50.514;9.678;2023-06-26T03:30:19;17.65;;;8.77;;
46745;SDS011;32493;50.514;9.678;2023-06-26T03:32:29;14.85;;;9.90;;
46745;SDS011;32493;50.514;9.678;2023-06-26T03:34:35;11.43;;;9.48;;
46745;SDS011;32493;50.514;9.678;2023-06-26T03:36:41;15.27;;;9.52;;
46745;SDS011;32493;50.514;9.678;2023-06-26T03:38:52;14.88;;;9.80;;
46745;SDS011;32493;50.514;9.678;2023-06-26T03:40:59;11.80;;;8.85;;
46745;SDS011;32493;50.514;9.678;2023-06-26T03:43:09;14.00;;;9.35;;
46745;SDS011;32493;50.514;9.678;2023-06-26T03:45:31;13.98;;;9.32;;
46745;SDS011;32493;50.514;9.678;2023-06-26T03:47:40;13.10;;;9.25;;
46745;SDS011;32493;50.514;9.678;2023-06-26T03:49:50;15.02;;;9.45;;
46745;SDS011;32493;50.514;9.678;2023-06-26T03:51:57;16.85;;;9.32;;
46745;SDS011;32493;50.514;9.678;2023-06-26T03:54:07;20.23;;;9.38;;
46745;SDS011;32493;50.514;9.678;2023-06-26T03:56:13;12.50;;;9.70;;
46745;SDS011;32493;50.514;9.678;2023-06-26T03:58:20;15.27;;;9.85;;
46745;SDS011;32493;50.514;9.678;2023-06-26T04:00:30;14.55;;;10.23;;
46745;SDS011;32493;50.514;9.678;2023-06-26T04:02:37;13.30;;;9.68;;
46745;SDS011;32493;50.514;9.678;2023-06-26T04:04:46;14.93;;;9.43;;
46745;SDS011;32493;50.514;9.678;2023-06-26T04:06:56;14.43;;;9.30;;
46745;SDS011;32493;50.514;9.678;2023-06-26T04:09:02;15.15;;;9.23;;
46745;SDS011;32493;50.514;9.678;2023-06-26T04:11:11;12.90;;;9.40;;
46745;SDS011;32493;50.514;9.678;2023-06-26T04:13:18;11.88;;;9.70;;
46745;SDS011;32493;50.514;9.678;2023-06-26T04:15:25;14.82;;;9.50;;
46745;SDS011;32493;50.514;9.678;2023-06-26T04:17:31;13.23;;;9.30;;
46745;SDS011;32493;50.514;9.678;2023-06-26T04:19:39;16.58;;;9.25;;
46745;SDS011;32493;50.514;9.678;2023-06-26T04:21:46;13.77;;;8.73;;
46745;SDS011;32493;50.514;9.678;2023-06-26T04:23:53;15.63;;;9.77;;
46745;SDS011;32493;50.514;9.678;2023-06-26T04:26:01;14.52;;;9.48;;
46745;SDS011;32493;50.514;9.678;2023-06-26T04:28:09;13.75;;;9.77;;
46745;SDS011;32493;50.514;9.678;2023-06-26T04:30:15;14.05;;;9.73;;
46745;SDS011;32493;50.514;9.678;2023-06-26T04:32:21;12.07;;;9.10;;
46745;SDS011;32493;50.514;9.678;2023-06-26T04:34:28;13.43;;;10.07;;
46745;SDS011;32493;50.514;9.678;2023-06-26T04:36:37;15.93;;;9.68;;
46745;SDS011;32493;50.514;9.678;2023-06-26T04:38:53;12.35;;;9.30;;
46745;SDS011;32493;50.514;9.678;2023-06-26T04:41:00;13.38;;;9.45;;
46745;SDS011;32493;50.514;9.678;2023-06-26T04:43:12;18.25;;;9.68;;
46745;SDS011;32493;50.514;9.678;2023-06-26T04:45:18;14.10;;;9.30;;
46745;SDS011;32493;50.514;9.678;2023-06-26T04:47:24;14.20;;;9.60;;
46745;SDS011;32493;50.514;9.678;2023-06-26T04:49:31;12.98;;;9.43;;
46745;SDS011;32493;50.514;9.678;2023-06-26T04:51:39;15.63;;;9.50;;
46745;SDS011;32493;50.514;9.678;2023-06-26T04:53:47;12.73;;;9.20;;
46745;SDS011;32493;50.514;9.678;2023-06-26T04:55:54;14.68;;;9.50;;
46745;SDS011;32493;50.514;9.678;2023-06-26T04:58:01;16.90;;;9.27;;
46745;SDS011;32493;50.514;9.678;2023-06-26T05:00:10;21.20;;;9.68;;
46745;SDS011;32493;50.514;9.678;2023-06-26T05:02:17;15.98;;;9.63;;
46745;SDS011;32493;50.514;9.678;2023-06-26T05:04:22;15.05;;;9.60;;
46745;SDS011;32493;50.514;9.678;2023-06-26T05:06:29;18.67;;;9.90;;
46745;SDS011;32493;50.514;9.678;2023-06-26T05:08:35;12.20;;;9.20;;
46745;SDS011;32493;50.514;9.678;2023-06-26T05:10:43;14.35;;;10.00;;
46745;SDS011;32493;50.514;9.678;2023-06-26T05:12:49;16.95;;;10.00;;
46745;SDS011;32493;50.514;9.678;2023-06-26T05:14:54;13.10;;;9.85;;
46745;SDS011;32493;50.514;9.678;2023-06-26T05:17:02;20.75;;;9.88;;
46745;SDS011;32493;50.514;9.678;2023-06-26T05:19:08;14.63;;;9.25;;
46745;SDS011;32493;50.514;9.678;2023-06-26T05:21:15;14.15;;;9.77;;
46745;SDS011;32493;50.514;9.678;2023-06-26T05:23:22;13.45;;;9.25;;
46745;SDS011;32493;50.514;9.678;2023-06-26T05:25:32;14.02;;;8.85;;
46745;SDS011;32493;50.514;9.678;2023-06-26T05:27:38;12.80;;;8.80;;
46745;SDS011;32493;50.514;9.678;2023-06-26T05:29:46;14.40;;;8.50;;
46745;SDS011;32493;50.514;9.678;2023-06-26T05:31:52;10.90;;;7.93;;
46745;SDS011;32493;50.514;9.678;2023-06-26T05:34:03;12.07;;;8.23;;
46745;SDS011;32493;50.514;9.678;2023-06-26T05:36:12;9.60;;;7.75;;
46745;SDS011;32493;50.514;9.678;2023-06-26T05:38:20;9.00;;;7.50;;
46745;SDS011;32493;50.514;9.678;2023-06-26T05:40:26;10.55;;;8.27;;
46745;SDS011;32493;50.514;9.678;2023-06-26T05:42:32;9.55;;;7.75;;
46745;SDS011;32493;50.514;9.678;2023-06-26T05:44:40;11.10;;;7.80;;
46745;SDS011;32493;50.514;9.678;2023-06-26T05:46:45;10.55;;;7.78;;
46745;SDS011;32493;50.514;9.678;2023-06-26T05:48:52;9.93;;;7.45;;
46745;SDS011;32493;50.514;9.678;2023-06-26T05:51:01;14.82;;;7.95;;
46745;SDS011;32493;50.514;9.678;2023-06-26T05:53:10;9.52;;;7.35;;
46745;SDS011;32493;50.514;9.678;2023-06-26T05:55:16;11.27;;;7.65;;
46745;SDS011;32493;50.514;9.678;2023-06-26T05:57:22;10.43;;;6.90;;
46745;SDS011;32493;50.514;9.678;2023-06-26T05:59:29;11.38;;;7.63;;
46745;SDS011;32493;50.514;9.678;2023-06-26T06:01:39;10.73;;;7.32;;
46745;SDS011;32493;50.514;9.678;2023-06-26T06:03:45;12.35;;;7.57;;
46745;SDS011;32493;50.514;9.678;2023-06-26T06:05:51;8.70;;;7.30;;
46745;SDS011;32493;50.514;9.678;2023-06-26T06:07:59;10.15;;;7.22;;
46745;SDS011;32493;50.514;9.678;2023-06-26T06:10:13;10.55;;;7.40;;
46745;SDS011;32493;50.514;9.678;2023-06-26T06:12:19;13.45;;;7.40;;
46745;SDS011;32493;50.514;9.678;2023-06-26T06:14:24;12.35;;;7.50;;
46745;SDS011;32493;50.514;9.678;2023-06-26T06:16:31;9.82;;;7.22;;
46745;SDS011;32493;50.514;9.678;2023-06-26T06:18:37;15.05;;;7.85;;
46745;SDS011;32493;50.514;9.678;2023-06-26T06:20:48;11.65;;;7.32;;
46745;SDS011;32493;50.514;9.678;2023-06-26T06:22:56;7.75;;;6.68;;
46745;SDS011;32493;50.514;9.678;2023-06-26T06:25:05;11.35;;;7.30;;
46745;SDS011;32493;50.514;9.678;2023-06-26T06:27:11;16.98;;;7.20;;
46745;SDS011;32493;50.514;9.678;2023-06-26T06:29:17;13.93;;;7.32;;
46745;SDS011;32493;50.514;9.678;2023-06-26T06:31:23;26.48;;;8.20;;
46745;SDS011;32493;50.514;9.678;2023-06-26T06:33:29;18.42;;;8.23;;
46745;SDS011;32493;50.514;9.678;2023-06-26T06:35:36;13.50;;;8.23;;
46745;SDS011;32493;50.514;9.678;2023-06-26T06:37:42;12.85;;;7.55;;
46745;SDS011;32493;50.514;9.678;2023-06-26T06:39:51;14.32;;;7.57;;
46745;SDS011;32493;50.514;9.678;2023-06-26T06:41:57;10.70;;;7.13;;
46745;SDS011;32493;50.514;9.678;2023-06-26T06:44:02;18.30;;;7.30;;
46745;SDS011;32493;50.514;9.678;2023-06-26T06:46:12;16.92;;;7.22;;
46745;SDS011;32493;50.514;9.678;2023-06-26T06:48:17;14.10;;;7.78;;
46745;SDS011;32493;50.514;9.678;2023-06-26T06:50:25;8.65;;;6.93;;
46745;SDS011;32493;50.514;9.678;2023-06-26T06:52:32;9.20;;;6.65;;
46745;SDS011;32493;50.514;9.678;2023-06-26T06:54:53;15.38;;;7.40;;
46745;SDS011;32493;50.514;9.678;2023-06-26T06:57:00;20.75;;;7.15;;
46745;SDS011;32493;50.514;9.678;2023-06-26T06:59:05;20.63;;;6.57;;
46745;SDS011;32493;50.514;9.678;2023-06-26T07:01:11;15.38;;;6.90;;
46745;SDS011;32493;50.514;9.678;2023-06-26T07:03:18;19.77;;;6.53;;
46745;SDS011;32493;50.514;9.678;2023-06-26T07:05:24;27.73;;;6.82;;
46745;SDS011;32493;50.514;9.678;2023-06-26T07:07:31;16.55;;;6.07;;
46745;SDS011;32493;50.514;9.678;2023-06-26T07:09:42;9.38;;;6.03;;
46745;SDS011;32493;50.514;9.678;2023-06-26T07:11:52;9.63;;;6.17;;
46745;SDS011;32493;50.514;9.678;2023-06-26T07:13:57;8.00;;;5.90;;
46745;SDS011;32493;50.514;9.678;2023-06-26T07:16:06;8.18;;;5.40;;
46745;SDS011;32493;50.514;9.678;2023-06-26T07:20:20;6.35;;;5.15;;
46745;SDS011;32493;50.514;9.678;2023-06-26T07:22:33;6.75;;;5.63;;
46745;SDS011;32493;50.514;9.678;2023-06-26T07:24:39;8.68;;;5.60;;
46745;SDS011;32493;50.514;9.678;2023-06-26T07:26:44;7.15;;;5.30;;
46745;SDS011;32493;50.514;9.678;2023-06-26T07:28:54;8.10;;;5.70;;
46745;SDS011;32493;50.514;9.678;2023-06-26T07:31:01;12.27;;;5.53;;
46745;SDS011;32493;50.514;9.678;2023-06-26T07:33:07;7.20;;;5.32;;
46745;SDS011;32493;50.514;9.678;2023-06-26T07:35:12;6.97;;;5.45;;
46745;SDS011;32493;50.514;9.678;2023-06-26T07:37:21;8.20;;;5.20;;
46745;SDS011;32493;50.514;9.678;2023-06-26T07:39:27;5.63;;;4.90;;
46745;SDS011;32493;50.514;9.678;2023-06-26T07:41:33;6.35;;;5.15;;
46745;SDS011;32493;50.514;9.678;2023-06-26T07:43:40;6.00;;;5.03;;
46745;SDS011;32493;50.514;9.678;2023-06-26T07:45:48;6.75;;;5.10;;
46745;SDS011;32493;50.514;9.678;2023-06-26T07:47:54;7.25;;;5.15;;
46745;SDS011;32493;50.514;9.678;2023-06-26T07:50:00;7.72;;;4.47;;
46745;SDS011;32493;50.514;9.678;2023-06-26T07:52:08;6.05;;;5.20;;
46745;SDS011;32493;50.514;9.678;2023-06-26T07:54:18;7.80;;;4.90;;
46745;SDS011;32493;50.514;9.678;2023-06-26T07:56:24;6.07;;;4.68;;
46745;SDS011;32493;50.514;9.678;2023-06-26T07:58:42;6.45;;;4.93;;
46745;SDS011;32493;50.514;9.678;2023-06-26T08:01:07;6.20;;;5.28;;
46745;SDS011;32493;50.514;9.678;2023-06-26T08:03:15;6.53;;;5.30;;
46745;SDS011;32493;50.514;9.678;2023-06-26T08:05:36;6.35;;;4.63;;
46745;SDS011;32493;50.514;9.678;2023-06-26T08:07:42;5.68;;;4.65;;
46745;SDS011;32493;50.514;9.678;2023-06-26T08:09:50;5.68;;;5.00;;
46745;SDS011;32493;50.514;9.678;2023-06-26T08:11:58;8.05;;;5.30;;
46745;SDS011;32493;50.514;9.678;2023-06-26T08:14:07;5.07;;;4.57;;
46745;SDS011;32493;50.514;9.678;2023-06-26T08:16:17;5.95;;;5.35;;
46745;SDS011;32493;50.514;9.678;2023-06-26T08:18:26;7.47;;;5.30;;
46745;SDS011;32493;50.514;9.678;2023-06-26T08:20:34;5.10;;;4.60;;
46745;SDS011;32493;50.514;9.678;2023-06-26T08:22:42;5.43;;;4.47;;
46745;SDS011;32493;50.514;9.678;2023-06-26T08:24:51;5.93;;;4.78;;
46745;SDS011;32493;50.514;9.678;2023-06-26T08:26:58;5.43;;;4.85;;
46745;SDS011;32493;50.514;9.678;2023-06-26T08:29:04;7.75;;;4.78;;
46745;SDS011;32493;50.514;9.678;2023-06-26T08:31:16;6.07;;;5.00;;
46745;SDS011;32493;50.514;9.678;2023-06-26T08:33:26;8.63;;;5.20;;
46745;SDS011;32493;50.514;9.678;2023-06-26T08:35:34;6.63;;;5.68;;
46745;SDS011;32493;50.514;9.678;2023-06-26T08:37:44;6.10;;;5.50;;
46745;SDS011;32493;50.514;9.678;2023-06-26T08:39:50;6.45;;;5.22;;
46745;SDS011;32493;50.514;9.678;2023-06-26T08:41:59;10.45;;;4.90;;
46745;SDS011;32493;50.514;9.678;2023-06-26T08:44:04;5.87;;;4.63;;
46745;SDS011;32493;50.514;9.678;2023-06-26T08:46:10;7.82;;;5.50;;
46745;SDS011;32493;50.514;9.678;2023-06-26T08:48:31;7.70;;;5.22;;
46745;SDS011;32493;50.514;9.678;2023-06-26T08:50:41;6.70;;;5.43;;
46745;SDS011;32493;50.514;9.678;2023-06-26T08:52:50;6.40;;;5.25;;
46745;SDS011;32493;50.514;9.678;2023-06-26T08:55:05;6.53;;;5.15;;
46745;SDS011;32493;50.514;9.678;2023-06-26T08:57:18;6.50;;;5.75;;
46745;SDS011;32493;50.514;9.678;2023-06-26T08:59:27;6.18;;;5.53;;
46745;SDS011;32493;50.514;9.678;2023-06-26T09:01:35;6.27;;;5.37;;
46745;SDS011;32493;50.514;9.678;2023-06-26T09:03:47;6.28;;;5.47;;
46745;SDS011;32493;50.514;9.678;2023-06-26T09:05:56;7.68;;;5.10;;
46745;SDS011;32493;50.514;9.678;2023-06-26T09:08:02;5.95;;;4.95;;
46745;SDS011;32493;50.514;9.678;2023-06-26T09:10:09;5.80;;;4.78;;
46745;SDS011;32493;50.514;9.678;2023-06-26T09:12:33;8.07;;;5.22;;
46745;SDS011;32493;50.514;9.678;2023-06-26T09:14:42;7.18;;;5.38;;
46745;SDS011;32493;50.514;9.678;2023-06-26T09:16:47;7.40;;;5.57;;
46745;SDS011;32493;50.514;9.678;2023-06-26T09:19:08;5.57;;;4.85;;
46745;SDS011;32493;50.514;9.678;2023-06-26T09:21:14;8.52;;;5.68;;
46745;SDS011;32493;50.514;9.678;2023-06-26T09:23:25;6.45;;;5.43;;
46745;SDS011;32493;50.514;9.678;2023-06-26T09:25:30;5.82;;;5.22;;
46745;SDS011;32493;50.514;9.678;2023-06-26T09:27:36;5.95;;;5.35;;
46745;SDS011;32493;50.514;9.678;2023-06-26T09:29:45;5.53;;;4.88;;
46745;SDS011;32493;50.514;9.678;2023-06-26T09:31:52;6.75;;;5.30;;
46745;SDS011;32493;50.514;9.678;2023-06-26T09:33:58;7.93;;;5.53;;
46745;SDS011;32493;50.514;9.678;2023-06-26T09:36:08;6.65;;;4.95;;
46745;SDS011;32493;50.514;9.678;2023-06-26T09:38:38;7.93;;;5.15;;
46745;SDS011;32493;50.514;9.678;2023-06-26T09:40:47;7.35;;;5.20;;
46745;SDS011;32493;50.514;9.678;2023-06-26T09:43:02;6.10;;;5.40;;
46745;SDS011;32493;50.514;9.678;2023-06-26T09:45:12;7.22;;;4.72;;
46745;SDS011;32493;50.514;9.678;2023-06-26T09:47:25;6.43;;;4.93;;
46745;SDS011;32493;50.514;9.678;2023-06-26T09:49:34;7.53;;;5.35;;
46745;SDS011;32493;50.514;9.678;2023-06-26T09:51:42;6.70;;;5.40;;
46745;SDS011;32493;50.514;9.678;2023-06-26T09:53:48;5.70;;;5.05;;
46745;SDS011;32493;50.514;9.678;2023-06-26T09:55:56;7.03;;;5.50;;
46745;SDS011;32493;50.514;9.678;2023-06-26T09:58:01;6.32;;;4.90;;
46745;SDS011;32493;50.514;9.678;2023-06-26T10:00:09;6.28;;;5.18;;
46745;SDS011;32493;50.514;9.678;2023-06-26T10:02:15;6.65;;;5.30;;
46745;SDS011;32493;50.514;9.678;2023-06-26T10:04:21;7.10;;;5.18;;
46745;SDS011;32493;50.514;9.678;2023-06-26T10:06:31;5.55;;;4.22;;
46745;SDS011;32493;50.514;9.678;2023-06-26T10:08:43;8.43;;;5.05;;
46745;SDS011;32493;50.514;9.678;2023-06-26T10:10:49;8.00;;;5.32;;
46745;SDS011;32493;50.514;9.678;2023-06-26T10:13:00;6.75;;;5.32;;
46745;SDS011;32493;50.514;9.678;2023-06-26T10:15:17;7.18;;;4.75;;
46745;SDS011;32493;50.514;9.678;2023-06-26T10:17:28;6.50;;;5.43;;
46745;SDS011;32493;50.514;9.678;2023-06-26T10:19:40;5.13;;;4.57;;
46745;SDS011;32493;50.514;9.678;2023-06-26T10:21:48;7.00;;;5.00;;
46745;SDS011;32493;50.514;9.678;2023-06-26T10:24:02;11.32;;;5.47;;
46745;SDS011;32493;50.514;9.678;2023-06-26T10:26:12;6.97;;;5.72;;
46745;SDS011;32493;50.514;9.678;2023-06-26T10:28:18;5.60;;;5.10;;
46745;SDS011;32493;50.514;9.678;2023-06-26T10:30:27;5.57;;;4.97;;
46745;SDS011;32493;50.514;9.678;2023-06-26T10:32:38;6.78;;;5.28;;
46745;SDS011;32493;50.514;9.678;2023-06-26T10:34:53;8.10;;;5.47;;
46745;SDS011;32493;50.514;9.678;2023-06-26T10:37:00;6.30;;;5.32;;
46745;SDS011;32493;50.514;9.678;2023-06-26T10:39:13;9.05;;;5.30;;
46745;SDS011;32493;50.514;9.678;2023-06-26T10:41:19;6.35;;;5.47;;
46745;SDS011;32493;50.514;9.678;2023-06-26T10:45:34;6.18;;;5.35;;
46745;SDS011;32493;50.514;9.678;2023-06-26T10:47:45;6.20;;;5.45;;
46745;SDS011;32493;50.514;9.678;2023-06-26T10:49:52;6.53;;;5.15;;
46745;SDS011;32493;50.514;9.678;2023-06-26T10:52:14;8.02;;;5.63;;
46745;SDS011;32493;50.514;9.678;2023-06-26T10:54:22;7.35;;;6.03;;
46745;SDS011;32493;50.514;9.678;2023-06-26T10:56:40;9.48;;;6.28;;
46745;SDS011;32493;50.514;9.678;2023-06-26T10:58:48;8.68;;;6.22;;
46745;SDS011;32493;50.514;9.678;2023-06-26T11:00:53;7.35;;;6.05;;
46745;SDS011;32493;50.514;9.678;2023-06-26T11:03:34;6.93;;;6.00;;
46745;SDS011;32493;50.514;9.678;2023-06-26T11:05:46;7.78;;;6.53;;
46745;SDS011;32493;50.514;9.678;2023-06-26T11:08:17;8.02;;;5.90;;
46745;SDS011;32493;50.514;9.678;2023-06-26T11:10:25;8.82;;;5.78;;
46745;SDS011;32493;50.514;9.678;2023-06-26T11:12:34;8.30;;;6.70;;
46745;SDS011;32493;50.514;9.678;2023-06-26T11:14:42;7.60;;;6.38;;
46745;SDS011;32493;50.514;9.678;2023-06-26T11:16:50;8.48;;;6.05;;
46745;SDS011;32493;50.514;9.678;2023-06-26T11:18:58;7.63;;;6.75;;
46745;SDS011;32493;50.514;9.678;2023-06-26T11:21:04;7.90;;;6.05;;
46745;SDS011;32493;50.514;9.678;2023-06-26T11:23:15;7.30;;;5.93;;
46745;SDS011;32493;50.514;9.678;2023-06-26T11:25:31;7.97;;;6.28;;
46745;SDS011;32493;50.514;9.678;2023-06-26T11:27:39;6.75;;;6.05;;
46745;SDS011;32493;50.514;9.678;2023-06-26T11:29:47;8.48;;;6.18;;
46745;SDS011;32493;50.514;9.678;2023-06-26T11:31:58;6.72;;;6.05;;
46745;SDS011;32493;50.514;9.678;2023-06-26T11:34:08;6.55;;;5.90;;
46745;SDS011;32493;50.514;9.678;2023-06-26T11:36:17;6.95;;;6.20;;
46745;SDS011;32493;50.514;9.678;2023-06-26T11:38:24;8.07;;;6.25;;
46745;SDS011;32493;50.514;9.678;2023-06-26T11:40:35;8.50;;;6.57;;
46745;SDS011;32493;50.514;9.678;2023-06-26T11:42:41;9.82;;;7.00;;
46745;SDS011;32493;50.514;9.678;2023-06-26T11:44:49;6.80;;;5.82;;
46745;SDS011;32493;50.514;9.678;2023-06-26T11:46:55;7.17;;;4.83;;
46745;SDS011;32493;50.514;9.678;2023-06-26T11:49:04;6.38;;;5.00;;
46745;SDS011;32493;50.514;9.678;2023-06-26T11:51:12;8.18;;;5.75;;
46745;SDS011;32493;50.514;9.678;2023-06-26T11:53:20;9.00;;;6.28;;
46745;SDS011;32493;50.514;9.678;2023-06-26T11:55:25;6.07;;;4.75;;
46745;SDS011;32493;50.514;9.678;2023-06-26T11:57:35;8.13;;;5.90;;
46745;SDS011;32493;50.514;9.678;2023-06-26T11:59:42;8.68;;;6.00;;
46745;SDS011;32493;50.514;9.678;2023-06-26T12:01:47;9.90;;;6.00;;
46745;SDS011;32493;50.514;9.678;2023-06-26T12:03:58;8.20;;;6.22;;
46745;SDS011;32493;50.514;9.678;2023-06-26T12:06:05;6.78;;;6.07;;
46745;SDS011;32493;50.514;9.678;2023-06-26T12:08:11;8.15;;;5.85;;
46745;SDS011;32493;50.514;9.678;2023-06-26T12:10:17;6.45;;;5.70;;
46745;SDS011;32493;50.514;9.678;2023-06-26T12:12:24;10.00;;;6.15;;
46745;SDS011;32493;50.514;9.678;2023-06-26T12:14:36;11.80;;;6.13;;
46745;SDS011;32493;50.514;9.678;2023-06-26T12:16:45;6.68;;;5.97;;
46745;SDS011;32493;50.514;9.678;2023-06-26T12:18:51;7.28;;;6.07;;
46745;SDS011;32493;50.514;9.678;2023-06-26T12:21:03;8.75;;;6.18;;
46745;SDS011;32493;50.514;9.678;2023-06-26T12:23:35;7.03;;;6.10;;
46745;SDS011;32493;50.514;9.678;2023-06-26T12:25:47;7.82;;;6.25;;
46745;SDS011;32493;50.514;9.678;2023-06-26T12:27:54;14.05;;;6.47;;
46745;SDS011;32493;50.514;9.678;2023-06-26T12:30:04;6.28;;;5.68;;
46745;SDS011;32493;50.514;9.678;2023-06-26T12:32:11;8.43;;;5.55;;
46745;SDS011;32493;50.514;9.678;2023-06-26T12:36:38;6.88;;;5.97;;
46745;SDS011;32493;50.514;9.678;2023-06-26T12:38:45;8.07;;;5.53;;
46745;SDS011;32493;50.514;9.678;2023-06-26T12:40:53;6.63;;;5.93;;
46745;SDS011;32493;50.514;9.678;2023-06-26T12:43:02;7.32;;;6.28;;
46745;SDS011;32493;50.514;9.678;2023-06-26T12:45:13;8.73;;;5.38;;
46745;SDS011;32493;50.514;9.678;2023-06-26T12:47:25;6.57;;;5.38;;
46745;SDS011;32493;50.514;9.678;2023-06-26T12:49:33;7.65;;;5.47;;
46745;SDS011;32493;50.514;9.678;2023-06-26T12:51:39;6.57;;;5.13;;
46745;SDS011;32493;50.514;9.678;2023-06-26T12:53:45;8.93;;;6.63;;
46745;SDS011;32493;50.514;9.678;2023-06-26T12:55:53;6.85;;;6.03;;
46745;SDS011;32493;50.514;9.678;2023-06-26T12:57:58;6.78;;;5.57;;
46745;SDS011;32493;50.514;9.678;2023-06-26T13:00:07;8.55;;;5.80;;
46745;SDS011;32493;50.514;9.678;2023-06-26T13:02:16;10.02;;;5.68;;
46745;SDS011;32493;50.514;9.678;2023-06-26T13:04:24;8.35;;;5.65;;